Valladolid, YUC, Mexico
Current Conditions -  °F | °C
As of 4:42 AM on Monday 20 Oct 2014 (Local Time) from MMCZ Reporting Station
Few Clouds Few Clouds  
Wind Chill: 72°   Ceiling: Unl
Heat Index: 72°   Visibility: 7mi
Dew Point: 72°   Wind: 0mph
Humidity: 100%   Direction: NA
Pressure: 29.86"   Gusts: NA
Location:  20.69°N, 88.21°W
Report Text: MMCZ 200942Z 00000KT 7SM FEW015 22/22 A2986 RMK 8/500 RTS
Loading
Personal Weather Stations






























Interactive Weather Map
Tropical Storm Tracking
New forecast layout! Learn more

10-Day Weather Forecast

Advertisements
Track Severe Weather on mobile